createdAt,value
2023-03-27T00:01:11.764Z,2.22
2023-03-27T00:03:40.075Z,2.20
2023-03-27T00:06:11.871Z,2.78
2023-03-27T00:11:05.914Z,2.03
2023-03-27T00:13:33.512Z,1.55
2023-03-27T00:16:00.147Z,2.25
2023-03-27T00:18:28.141Z,1.70
2023-03-27T00:20:58.761Z,1.83
2023-03-27T00:23:25.429Z,1.70
2023-03-27T00:25:52.177Z,1.88
2023-03-27T00:28:18.814Z,2.05
2023-03-27T00:30:45.397Z,1.95
2023-03-27T00:33:12.411Z,2.03
2023-03-27T00:35:39.128Z,2.40
2023-03-27T00:38:05.524Z,1.67
2023-03-27T00:40:32.372Z,2.00
2023-03-27T00:42:59.260Z,2.15
2023-03-27T00:45:30.585Z,1.70
2023-03-27T00:48:02.159Z,2.15
2023-03-27T00:53:09.112Z,2.42
2023-03-27T00:55:38.789Z,2.08
2023-03-27T00:58:09.746Z,1.83
2023-03-27T01:00:36.856Z,1.85
2023-03-27T01:03:06.750Z,1.80
2023-03-27T01:05:34.931Z,2.13
2023-03-27T01:08:02.212Z,1.98
2023-03-27T01:10:53.262Z,1.85
2023-03-27T01:13:41.578Z,2.08
2023-03-27T01:16:21.981Z,2.08
2023-03-27T01:18:56.463Z,2.15
2023-03-27T01:21:47.699Z,2.38
2023-03-27T01:24:26.645Z,2.22
2023-03-27T01:27:10.520Z,1.92
2023-03-27T01:29:49.085Z,2.22
2023-03-27T01:32:49.774Z,2.00
2023-03-27T01:35:29.903Z,2.00
2023-03-27T01:38:24.898Z,2.10
2023-03-27T01:40:55.110Z,2.67
2023-03-27T01:43:36.607Z,2.00
2023-03-27T01:46:09.083Z,2.38
2023-03-27T01:49:08.771Z,1.98
2023-03-27T01:51:38.768Z,2.05
2023-03-27T01:54:15.439Z,2.30
2023-03-27T01:56:53.519Z,1.92
2023-03-27T01:59:27.105Z,2.10
2023-03-27T02:02:17.268Z,2.30
2023-03-27T02:04:54.457Z,2.05
2023-03-27T02:07:29.540Z,2.05
2023-03-27T02:10:02.706Z,1.95
2023-03-27T02:12:41.076Z,1.80
2023-03-27T02:15:23.588Z,2.03
2023-03-27T02:18:05.619Z,1.58
2023-03-27T02:20:34.032Z,2.07
2023-03-27T02:23:00.821Z,1.83
2023-03-27T02:25:27.240Z,2.20
2023-03-27T02:28:11.975Z,1.50
2023-03-27T02:30:38.307Z,1.50
2023-03-27T02:33:08.882Z,2.05
2023-03-27T02:36:11.172Z,1.90
2023-03-27T02:38:49.515Z,3.53
2023-03-27T02:41:37.330Z,6.10
2023-03-27T02:44:15.760Z,3.75
2023-03-27T02:46:54.349Z,3.08
2023-03-27T02:49:29.745Z,2.28
2023-03-27T02:52:02.186Z,1.88
2023-03-27T02:54:40.178Z,1.45
2023-03-27T02:57:11.991Z,1.27
2023-03-27T02:59:45.331Z,1.35
2023-03-27T03:02:21.512Z,1.17
2023-03-27T03:04:57.019Z,1.23
2023-03-27T03:07:26.495Z,1.30
2023-03-27T03:09:55.718Z,1.20
2023-03-27T03:12:23.027Z,1.40
2023-03-27T03:14:49.579Z,1.05
2023-03-27T03:17:17.234Z,1.15
2023-03-27T03:19:43.624Z,2.28
2023-03-27T03:22:11.203Z,1.25
2023-03-27T03:24:41.688Z,1.33
2023-03-27T03:27:08.208Z,0.98
2023-03-27T03:29:37.577Z,1.10
2023-03-27T03:32:06.255Z,1.25
2023-03-27T03:34:35.520Z,1.30
2023-03-27T03:37:02.093Z,1.50
2023-03-27T03:39:28.830Z,2.75
2023-03-27T03:41:55.472Z,3.40
2023-03-27T03:44:21.962Z,2.53
2023-03-27T03:46:48.388Z,2.03
2023-03-27T03:49:14.818Z,1.67
2023-03-27T03:51:41.400Z,2.20
2023-03-27T03:54:09.160Z,1.60
2023-03-27T03:56:37.198Z,1.58
2023-03-27T03:59:03.754Z,1.50
2023-03-27T04:01:30.210Z,1.20
2023-03-27T04:03:56.868Z,2.35
2023-03-27T04:06:25.915Z,1.40
2023-03-27T04:08:53.359Z,1.10
2023-03-27T04:11:19.876Z,1.10
2023-03-27T04:13:46.504Z,1.27
2023-03-27T04:16:12.985Z,1.10
2023-03-27T04:18:41.144Z,1.38
2023-03-27T04:21:15.909Z,1.38
2023-03-27T04:23:43.626Z,1.90
2023-03-27T04:26:12.296Z,1.60
2023-03-27T04:28:39.662Z,2.05
2023-03-27T04:31:07.560Z,2.20
2023-03-27T04:33:35.942Z,1.80
2023-03-27T04:36:06.638Z,1.70
2023-03-27T04:38:38.953Z,1.70
2023-03-27T04:41:06.042Z,1.98
2023-03-27T04:43:36.378Z,2.15
2023-03-27T04:46:05.857Z,2.05
2023-03-27T04:48:32.795Z,1.92
2023-03-27T04:50:59.421Z,1.90
2023-03-27T04:53:30.086Z,1.65
2023-03-27T04:55:57.187Z,2.22
2023-03-27T04:58:25.735Z,2.05
2023-03-27T05:00:56.261Z,2.00
2023-03-27T05:03:28.363Z,2.63
2023-03-27T05:05:56.072Z,2.30
2023-03-27T05:08:22.735Z,2.17
2023-03-27T05:10:49.788Z,2.45
2023-03-27T05:13:16.444Z,2.50
2023-03-27T05:15:43.168Z,3.45
2023-03-27T05:18:09.945Z,2.58
2023-03-27T05:20:36.681Z,3.25
2023-03-27T05:23:03.317Z,3.00
2023-03-27T05:25:31.585Z,2.58
2023-03-27T05:27:58.150Z,2.50
2023-03-27T05:30:26.103Z,2.60
2023-03-27T05:32:53.768Z,3.13
2023-03-27T05:35:23.201Z,3.38
2023-03-27T05:37:52.483Z,2.47
2023-03-27T05:40:25.246Z,2.90
2023-03-27T05:42:53.382Z,2.38
2023-03-27T05:45:20.715Z,2.47
2023-03-27T05:47:55.522Z,2.83
2023-03-27T05:50:28.471Z,2.03
2023-03-27T05:53:12.805Z,2.47
2023-03-27T05:55:39.408Z,2.35
2023-03-27T05:58:09.572Z,2.38
2023-03-27T06:00:38.318Z,2.63
2023-03-27T06:03:05.131Z,2.33
2023-03-27T06:05:32.566Z,2.17
2023-03-27T06:07:59.045Z,2.13
2023-03-27T06:10:28.271Z,2.28
2023-03-27T06:13:06.419Z,1.77
2023-03-27T06:15:33.820Z,2.00
2023-03-27T06:18:00.377Z,1.98
2023-03-27T06:20:27.593Z,1.92
2023-03-27T06:22:56.696Z,2.30
2023-03-27T06:25:24.842Z,2.25
2023-03-27T06:27:51.570Z,1.70
2023-03-27T06:30:20.340Z,1.73
2023-03-27T06:32:49.105Z,1.80
2023-03-27T06:35:16.318Z,1.80
2023-03-27T06:37:48.303Z,1.90
2023-03-27T06:40:22.724Z,1.75
2023-03-27T06:42:56.128Z,2.00
2023-03-27T06:45:24.872Z,2.15
2023-03-27T06:47:55.289Z,1.65
2023-03-27T06:50:25.851Z,1.90
2023-03-27T06:52:52.511Z,1.92
2023-03-27T06:55:20.977Z,1.90
2023-03-27T06:57:52.618Z,2.28
2023-03-27T07:00:25.835Z,2.33
2023-03-27T07:02:57.450Z,2.00
2023-03-27T07:05:26.398Z,1.98
2023-03-27T07:07:54.173Z,3.75
2023-03-27T07:10:22.350Z,2.10
2023-03-27T07:12:50.466Z,2.05
2023-03-27T07:15:17.925Z,1.98
2023-03-27T07:17:48.936Z,2.40
2023-03-27T07:22:43.073Z,2.50
2023-03-27T07:25:12.112Z,1.80
2023-03-27T07:27:38.889Z,2.00
2023-03-27T07:30:07.866Z,1.58
2023-03-27T07:32:37.878Z,1.88
2023-03-27T07:35:05.359Z,1.95
2023-03-27T07:37:31.868Z,1.80
2023-03-27T07:39:58.396Z,2.10
2023-03-27T07:42:24.882Z,2.90
2023-03-27T07:44:51.497Z,2.88
2023-03-27T07:47:18.153Z,1.98
2023-03-27T07:49:44.552Z,1.85
2023-03-27T07:52:11.022Z,1.60
2023-03-27T07:54:37.467Z,1.65
2023-03-27T07:57:05.091Z,1.77
2023-03-27T07:59:32.332Z,1.63
2023-03-27T08:01:58.803Z,1.83
2023-03-27T08:04:25.358Z,1.90
2023-03-27T08:06:54.530Z,2.25
2023-03-27T08:09:21.357Z,2.08
2023-03-27T08:11:50.373Z,2.22
2023-03-27T08:14:16.996Z,1.30
2023-03-27T08:16:43.570Z,1.90
2023-03-27T08:19:11.364Z,1.60
2023-03-27T08:21:38.477Z,1.60
2023-03-27T08:24:05.362Z,1.60
2023-03-27T08:26:32.177Z,1.88
2023-03-27T08:29:00.229Z,1.40
2023-03-27T08:31:30.602Z,1.55
2023-03-27T08:33:57.329Z,2.10
2023-03-27T08:36:24.146Z,1.85
2023-03-27T08:38:50.775Z,1.75
2023-03-27T08:41:40.537Z,1.70
2023-03-27T08:44:13.080Z,1.45
2023-03-27T08:47:02.827Z,1.38
2023-03-27T08:49:41.158Z,1.48
2023-03-27T08:52:19.469Z,1.30
2023-03-27T08:54:53.430Z,1.17
2023-03-27T08:57:22.678Z,0.93
2023-03-27T08:59:52.368Z,1.30
2023-03-27T09:02:40.785Z,1.48
2023-03-27T09:05:54.062Z,1.48
2023-03-27T09:08:40.637Z,2.28
2023-03-27T09:11:51.946Z,1.70
2023-03-27T09:14:33.721Z,1.60
2023-03-27T09:19:54.883Z,1.83
2023-03-27T09:22:25.116Z,1.65
2023-03-27T09:24:56.366Z,2.45
2023-03-27T09:27:32.490Z,1.33
2023-03-27T09:30:08.471Z,2.13
2023-03-27T09:32:35.052Z,1.30
2023-03-27T09:35:01.679Z,1.30
2023-03-27T09:37:28.200Z,1.30
2023-03-27T09:39:55.162Z,1.70
2023-03-27T09:42:30.604Z,1.58
2023-03-27T09:45:01.784Z,1.70
2023-03-27T09:47:58.009Z,2.13
2023-03-27T09:50:27.727Z,1.80
2023-03-27T09:53:18.956Z,1.98
2023-03-27T09:56:01.109Z,1.30
2023-03-27T09:58:35.375Z,1.33
2023-03-27T10:01:19.837Z,1.88
2023-03-27T10:03:50.059Z,1.60
2023-03-27T10:06:41.125Z,1.20
2023-03-27T10:09:22.563Z,1.40
2023-03-27T10:11:50.988Z,1.27
2023-03-27T10:14:20.247Z,1.70
2023-03-27T10:16:47.859Z,1.30
2023-03-27T10:19:37.114Z,2.08
2023-03-27T10:22:25.954Z,1.50
2023-03-27T10:24:53.519Z,1.10
2023-03-27T10:27:26.545Z,1.50
2023-03-27T10:29:53.078Z,1.25
2023-03-27T10:32:40.168Z,1.20
2023-03-27T10:35:26.955Z,1.67
2023-03-27T10:37:54.781Z,1.63
2023-03-27T10:40:26.410Z,1.40
2023-03-27T10:45:23.543Z,2.05
2023-03-27T10:47:59.238Z,1.60
2023-03-27T10:50:34.402Z,1.00
2023-03-27T10:53:27.315Z,2.05
2023-03-27T10:56:05.769Z,1.00
2023-03-27T10:58:53.160Z,1.20
2023-03-27T11:01:35.313Z,1.33
2023-03-27T11:04:15.253Z,1.13
2023-03-27T11:06:44.803Z,1.52
2023-03-27T11:09:33.681Z,1.50
2023-03-27T11:12:05.172Z,1.05
2023-03-27T11:14:59.190Z,0.82
2023-03-27T11:17:36.296Z,0.95
2023-03-27T11:20:08.502Z,1.05
2023-03-27T11:22:42.085Z,1.10
2023-03-27T11:25:21.917Z,1.42
2023-03-27T11:28:03.483Z,1.55
2023-03-27T11:31:12.971Z,1.60
2023-03-27T11:33:50.582Z,1.08
2023-03-27T11:36:49.444Z,2.97
2023-03-27T11:39:25.223Z,1.25
2023-03-27T11:41:58.306Z,1.83
2023-03-27T11:44:26.452Z,0.80
2023-03-27T11:47:11.827Z,0.85
2023-03-27T11:49:47.701Z,1.33
2023-03-27T11:52:30.860Z,1.23
2023-03-27T11:55:10.685Z,1.40
2023-03-27T11:57:51.050Z,1.40
2023-03-27T12:00:31.612Z,1.23
2023-03-27T12:03:22.763Z,1.33
2023-03-27T12:05:58.825Z,1.33
2023-03-27T12:08:41.156Z,1.05
2023-03-27T12:11:11.246Z,1.55
2023-03-27T12:13:42.296Z,1.38
2023-03-27T12:16:36.862Z,1.00
2023-03-27T12:19:32.468Z,1.17
2023-03-27T12:22:23.890Z,1.35
2023-03-27T12:25:06.060Z,1.30
2023-03-27T12:27:53.742Z,1.27
2023-03-27T12:30:33.061Z,1.20
2023-03-27T12:33:16.523Z,1.27
2023-03-27T12:35:47.302Z,1.83
2023-03-27T12:38:28.904Z,1.63
2023-03-27T12:41:05.261Z,2.03
2023-03-27T12:43:39.567Z,1.33
2023-03-27T12:46:12.539Z,1.45
2023-03-27T12:48:54.012Z,1.58
2023-03-27T12:52:04.181Z,1.38
2023-03-27T12:54:42.415Z,1.60
2023-03-27T12:57:19.266Z,1.90
2023-03-27T12:59:48.904Z,1.40
2023-03-27T13:02:16.054Z,3.20
2023-03-27T13:04:48.646Z,1.85
2023-03-27T13:07:28.662Z,1.23
2023-03-27T13:10:16.887Z,1.45
2023-03-27T13:13:02.515Z,3.08
2023-03-27T13:16:00.175Z,4.07
2023-03-27T13:19:00.740Z,2.35
2023-03-27T13:22:02.603Z,2.08
2023-03-27T13:25:00.307Z,2.03
2023-03-27T13:27:40.888Z,1.52
2023-03-27T13:30:41.638Z,5.03
2023-03-27T13:33:16.285Z,4.45
2023-03-27T13:35:58.039Z,1.98
2023-03-27T13:38:46.954Z,2.30
2023-03-27T13:41:44.083Z,1.98
2023-03-27T13:44:23.996Z,7.43
2023-03-27T13:47:06.597Z,6.70
2023-03-27T13:49:59.223Z,5.80
2023-03-27T13:52:44.039Z,1.30
2023-03-27T13:55:17.085Z,2.00
2023-03-27T13:58:15.190Z,2.00
2023-03-27T14:01:09.332Z,2.50
2023-03-27T14:04:13.566Z,3.67
2023-03-27T14:06:51.886Z,1.58
2023-03-27T14:09:36.335Z,1.45
2023-03-27T14:12:12.944Z,1.52
2023-03-27T14:15:16.409Z,1.08
2023-03-27T14:17:42.894Z,1.50
2023-03-27T14:20:23.956Z,1.90
2023-03-27T14:22:56.757Z,1.60
2023-03-27T14:25:34.119Z,3.33
2023-03-27T14:28:01.310Z,2.88
2023-03-27T14:30:32.554Z,1.67
2023-03-27T14:33:07.956Z,1.00
2023-03-27T14:35:40.365Z,1.48
2023-03-27T14:38:24.972Z,1.63
2023-03-27T14:40:56.396Z,1.40
2023-03-27T14:43:25.881Z,1.30
2023-03-27T14:45:56.842Z,1.23
2023-03-27T14:48:29.800Z,2.22
2023-03-27T14:51:01.896Z,1.33
2023-03-27T14:53:36.362Z,0.93
2023-03-27T14:56:19.910Z,1.05
2023-03-27T14:58:47.108Z,1.48
2023-03-27T15:01:17.096Z,1.48
2023-03-27T15:03:45.971Z,1.83
2023-03-27T15:06:19.398Z,2.47
2023-03-27T15:08:50.169Z,4.20
2023-03-27T15:11:21.484Z,3.20
2023-03-27T15:13:48.437Z,1.90
2023-03-27T15:16:22.323Z,1.58
2023-03-27T15:19:18.384Z,1.90
2023-03-27T15:24:59.754Z,0.80
2023-03-27T15:27:48.330Z,0.60
2023-03-27T15:30:30.203Z,0.68
2023-03-27T15:33:02.001Z,0.88
2023-03-27T15:35:34.259Z,1.10
2023-03-27T15:38:02.280Z,0.95
2023-03-27T15:40:52.561Z,1.23
2023-03-27T15:43:22.442Z,0.95
2023-03-27T15:46:07.540Z,0.70
2023-03-27T15:48:37.921Z,1.45
2023-03-27T15:51:25.981Z,0.95
2023-03-27T15:53:55.990Z,0.77
2023-03-27T15:56:27.203Z,0.77
2023-03-27T15:59:01.572Z,1.13
2023-03-27T16:01:34.814Z,1.05
2023-03-27T16:04:12.556Z,0.85
2023-03-27T16:06:44.192Z,1.10
2023-03-27T16:11:47.845Z,0.90
2023-03-27T16:14:32.715Z,1.50
2023-03-27T16:17:08.681Z,0.80
2023-03-27T16:20:08.088Z,0.80
2023-03-27T16:22:37.213Z,0.80
2023-03-27T16:25:07.177Z,0.88
2023-03-27T16:27:47.449Z,1.02
2023-03-27T16:30:24.013Z,1.00
2023-03-27T16:32:51.041Z,2.40
2023-03-27T16:35:18.268Z,1.45
2023-03-27T16:37:45.683Z,1.25
2023-03-27T16:40:12.423Z,1.15
2023-03-27T16:42:38.952Z,1.27
2023-03-27T16:45:06.040Z,1.00
2023-03-27T16:47:32.634Z,1.05
2023-03-27T16:50:10.915Z,0.77
2023-03-27T16:52:37.974Z,1.10
2023-03-27T16:55:07.007Z,0.90
2023-03-27T16:57:34.199Z,1.05
2023-03-27T17:00:00.747Z,1.05
2023-03-27T17:02:28.707Z,1.23
2023-03-27T17:04:55.387Z,1.02
2023-03-27T17:07:21.975Z,1.00
2023-03-27T17:09:48.414Z,1.45
2023-03-27T17:12:14.802Z,1.17
2023-03-27T17:14:41.219Z,0.73
2023-03-27T17:17:07.698Z,0.85
2023-03-27T17:19:34.183Z,0.57
2023-03-27T17:22:00.742Z,1.10
2023-03-27T17:24:27.168Z,0.90
2023-03-27T17:26:53.699Z,0.90
2023-03-27T17:29:20.284Z,0.80
2023-03-27T17:31:46.778Z,0.98
2023-03-27T17:34:13.366Z,1.15
2023-03-27T17:36:47.267Z,0.63
2023-03-27T17:39:19.176Z,1.38
2023-03-27T17:41:45.709Z,1.40
2023-03-27T17:44:13.004Z,1.63
2023-03-27T17:46:39.579Z,1.00
2023-03-27T17:49:06.088Z,0.90
2023-03-27T17:51:34.119Z,2.33
2023-03-27T17:54:01.063Z,1.42
2023-03-27T17:56:27.506Z,1.00
2023-03-27T17:58:53.998Z,1.52
2023-03-27T18:01:23.115Z,1.70
2023-03-27T18:03:50.414Z,1.92
2023-03-27T18:06:17.995Z,1.85
2023-03-27T18:08:46.230Z,1.70
2023-03-27T18:11:14.934Z,1.20
2023-03-27T18:13:41.885Z,0.95
2023-03-27T18:16:10.621Z,1.00
2023-03-27T18:18:39.034Z,1.15
2023-03-27T18:21:06.219Z,1.27
2023-03-27T18:23:34.791Z,1.08
2023-03-27T18:26:08.345Z,1.00
2023-03-27T18:28:35.747Z,1.13
2023-03-27T18:31:05.322Z,1.30
2023-03-27T18:33:32.177Z,1.63
2023-03-27T18:35:59.053Z,1.10
2023-03-27T18:38:27.127Z,0.80
2023-03-27T18:40:56.145Z,0.95
2023-03-27T18:43:23.325Z,1.05
2023-03-27T18:46:01.476Z,1.00
2023-03-27T18:48:29.678Z,0.98
2023-03-27T18:50:58.229Z,1.00
2023-03-27T18:53:26.100Z,2.17
2023-03-27T18:55:53.836Z,1.10
2023-03-27T18:58:24.155Z,2.22
2023-03-27T19:00:51.143Z,0.90
2023-03-27T19:03:19.878Z,0.88
2023-03-27T19:05:51.272Z,0.95
2023-03-27T19:08:18.938Z,1.00
2023-03-27T19:10:45.585Z,1.17
2023-03-27T19:13:12.543Z,1.27
2023-03-27T19:15:41.074Z,1.10
2023-03-27T19:18:07.831Z,1.00
2023-03-27T19:20:34.560Z,1.20
2023-03-27T19:23:01.195Z,1.20
2023-03-27T19:25:27.704Z,1.08
2023-03-27T19:27:54.398Z,1.02
2023-03-27T19:30:21.124Z,1.52
2023-03-27T19:32:47.634Z,0.90
2023-03-27T19:35:14.271Z,1.17
2023-03-27T19:37:41.664Z,1.75
2023-03-27T19:40:09.396Z,1.27
2023-03-27T19:42:36.284Z,1.10
2023-03-27T19:45:03.031Z,1.27
2023-03-27T19:47:29.583Z,0.98
2023-03-27T19:49:56.107Z,0.98
2023-03-27T19:52:23.088Z,1.30
2023-03-27T19:54:49.827Z,1.52
2023-03-27T19:57:16.390Z,1.10
2023-03-27T19:59:43.000Z,0.95
2023-03-27T20:02:11.924Z,1.40
2023-03-27T20:04:38.731Z,1.20
2023-03-27T20:07:07.532Z,1.30
2023-03-27T20:09:34.413Z,2.55
2023-03-27T20:12:01.335Z,1.90
2023-03-27T20:14:28.030Z,1.70
2023-03-27T20:16:54.629Z,1.20
2023-03-27T20:19:22.794Z,1.20
2023-03-27T20:21:49.383Z,1.50
2023-03-27T20:24:18.001Z,1.60
2023-03-27T20:26:48.285Z,1.30
2023-03-27T20:29:17.851Z,1.20
2023-03-27T20:31:45.314Z,2.17
2023-03-27T20:34:12.081Z,1.02
2023-03-27T20:36:41.132Z,1.42
2023-03-27T20:39:08.139Z,0.95
2023-03-27T20:41:38.859Z,1.20
2023-03-27T20:44:14.960Z,1.20
2023-03-27T20:46:51.198Z,1.00
2023-03-27T20:49:39.957Z,1.00
2023-03-27T20:52:08.879Z,1.00
2023-03-27T20:54:35.335Z,1.05
2023-03-27T20:57:02.476Z,0.65
2023-03-27T20:59:29.863Z,0.57
2023-03-27T21:01:56.645Z,0.75
2023-03-27T21:04:25.518Z,0.60
2023-03-27T21:06:54.799Z,1.13
2023-03-27T21:09:23.455Z,1.95
2023-03-27T21:11:50.303Z,0.60
2023-03-27T21:14:17.249Z,1.10
2023-03-27T21:16:43.812Z,0.90
2023-03-27T21:19:11.566Z,1.00
2023-03-27T21:21:38.636Z,0.80
2023-03-27T21:24:05.971Z,1.00
2023-03-27T21:26:33.006Z,0.80
2023-03-27T21:28:59.457Z,1.48
2023-03-27T21:31:25.884Z,0.90
2023-03-27T21:33:52.363Z,0.93
2023-03-27T21:36:18.896Z,0.90
2023-03-27T21:38:45.722Z,0.80
2023-03-27T21:41:15.270Z,0.52
2023-03-27T21:43:41.678Z,1.00
2023-03-27T21:46:08.311Z,0.70
2023-03-27T21:48:34.820Z,1.13
2023-03-27T21:51:03.406Z,1.20
2023-03-27T21:53:30.061Z,1.00
2023-03-27T21:55:57.561Z,0.75
2023-03-27T21:58:24.862Z,0.98
2023-03-27T22:00:51.446Z,0.80
2023-03-27T22:03:17.911Z,1.00
2023-03-27T22:05:49.195Z,1.02
2023-03-27T22:08:21.500Z,0.90
2023-03-27T22:10:47.953Z,1.02
2023-03-27T22:13:14.378Z,0.90
2023-03-27T22:15:41.184Z,1.38
2023-03-27T22:18:07.888Z,0.82
2023-03-27T22:20:34.353Z,1.13
2023-03-27T22:23:00.831Z,1.10
2023-03-27T22:25:27.348Z,0.60
2023-03-27T22:27:53.819Z,1.50
2023-03-27T22:30:20.229Z,1.30
2023-03-27T22:32:46.700Z,0.90
2023-03-27T22:35:13.195Z,0.90
2023-03-27T22:37:39.852Z,0.88
2023-03-27T22:40:07.573Z,1.08
2023-03-27T22:42:35.044Z,0.93
2023-03-27T22:45:01.496Z,1.17
2023-03-27T22:47:27.957Z,0.98
2023-03-27T22:49:54.382Z,1.15
2023-03-27T22:52:21.009Z,1.17
2023-03-27T22:54:47.479Z,2.20
2023-03-27T22:57:13.920Z,1.08
2023-03-27T22:59:40.385Z,0.93
2023-03-27T23:02:06.963Z,1.05
2023-03-27T23:04:33.547Z,0.80
2023-03-27T23:07:01.306Z,1.55
2023-03-27T23:09:27.782Z,1.13
2023-03-27T23:11:54.228Z,1.13
2023-03-27T23:14:20.650Z,2.13
2023-03-27T23:16:47.118Z,0.93
2023-03-27T23:19:13.516Z,1.27
2023-03-27T23:21:40.021Z,0.63
2023-03-27T23:24:06.762Z,0.60
2023-03-27T23:26:33.137Z,0.63
2023-03-27T23:28:59.540Z,0.88
2023-03-27T23:31:26.036Z,0.80
2023-03-27T23:33:52.550Z,0.90
2023-03-27T23:36:24.593Z,2.13
2023-03-27T23:38:52.641Z,1.10
2023-03-27T23:41:20.246Z,1.40
2023-03-27T23:43:46.925Z,1.00
2023-03-27T23:46:13.607Z,0.93
2023-03-27T23:48:41.865Z,1.23
2023-03-27T23:51:09.559Z,1.10
2023-03-27T23:53:36.608Z,1.25
2023-03-27T23:56:03.613Z,0.85
2023-03-27T23:58:32.134Z,0.90
